バロー の空港の天気 - METARとTAF

Barrow, Wiley Post-Will Rogers Memorial Airport ( PABR / BRW ) - アメリカ アラスカ州バロー
飛行場実況気象(Metar)
観測時間04/26 20:53 AKDT (04/27 04:53 UTC)
風向・風速南東 4m/s
視程10km以上
天気現象
なし
気温-1.1℃
湿度85%
気圧1011.5hPa
METARPABR 270453Z 13008KT 10SM CLR M01/M03 A2987 RMK AO2 SLP115 T10111033 $
過去の天気等 Google飛行場航空写真 Wunderground天気予報

過去48時間のMETAR

飛行場予報(TAF)
発表時間: 4/26 15:20 AKDT (4/26 23:20 UTC)
予報対象時間: 26日16時 AKDT ~ 27日16時 AKDT
風向・風速南東 5m/s
視程10km以上
全天の4割程度の雲 雲底高度 1,520m
27日3時 AKDT から
風向・風速東 5m/s
視程4,830m
天気現象もや 周辺で霧
全天の4割程度の雲 雲底高度 270m
全天の8割程度の雲 雲底高度 1,520m
PABR 262320Z 2700/2724 14009KT P6SM SCT050
FM271100 10009KT 3SM BR VCFG SCT009 BKN050